Helena, Ohio
Current Conditions -  °F | °C
As of 8:53 PM on Friday 24 Oct 2014 (Local Time) from KTDZ Reporting Station
Overcast Overcast  
Wind Chill: 52°   Ceiling: 4200
Heat Index: 52°   Visibility: 10mi
Dew Point: 45°   Wind: 3mph
Humidity: 77%   Direction: 200°SSW
Pressure: 30"   Gusts: NA
Location:  41.34°N, 83.29°W
Report Text: KTDZ 250053Z AUTO 20003KT 10SM OVC042 11/07 A3000 RMK AO2 SLP162 T01110072 TSNO
Loading
Personal Weather Stations






























Interactive Weather Map
Tropical Storm Tracking
New forecast layout! Learn more

10-Day Weather Forecast

Advertisements
Track Severe Weather on mobile